sensor_id;sensor_type;location;lat;lon;timestamp;P1;durP1;ratioP1;P2;durP2;ratioP2
813;SDS011;389;48.710;9.392;2023-08-21T00:01:42;11.60;;;10.17;;
813;SDS011;389;48.710;9.392;2023-08-21T00:04:07;10.97;;;9.70;;
813;SDS011;389;48.710;9.392;2023-08-21T00:06:33;10.87;;;9.77;;
813;SDS011;389;48.710;9.392;2023-08-21T00:08:59;12.40;;;10.03;;
813;SDS011;389;48.710;9.392;2023-08-21T00:11:28;10.70;;;9.60;;
813;SDS011;389;48.710;9.392;2023-08-21T00:13:53;12.60;;;10.17;;
813;SDS011;389;48.710;9.392;2023-08-21T00:16:19;12.10;;;10.43;;
813;SDS011;389;48.710;9.392;2023-08-21T00:18:44;14.87;;;10.73;;
813;SDS011;389;48.710;9.392;2023-08-21T00:21:10;11.67;;;10.47;;
813;SDS011;389;48.710;9.392;2023-08-21T00:23:36;14.37;;;11.63;;
813;SDS011;389;48.710;9.392;2023-08-21T00:26:01;10.40;;;9.40;;
813;SDS011;389;48.710;9.392;2023-08-21T00:28:27;11.37;;;10.10;;
813;SDS011;389;48.710;9.392;2023-08-21T00:31:01;11.43;;;9.60;;
813;SDS011;389;48.710;9.392;2023-08-21T00:33:28;13.20;;;10.80;;
813;SDS011;389;48.710;9.392;2023-08-21T00:35:54;12.50;;;10.47;;
813;SDS011;389;48.710;9.392;2023-08-21T00:38:20;12.87;;;11.50;;
813;SDS011;389;48.710;9.392;2023-08-21T00:40:45;15.43;;;11.77;;
813;SDS011;389;48.710;9.392;2023-08-21T00:43:11;13.10;;;10.97;;
813;SDS011;389;48.710;9.392;2023-08-21T00:45:37;14.53;;;11.20;;
813;SDS011;389;48.710;9.392;2023-08-21T00:48:05;11.00;;;9.90;;
813;SDS011;389;48.710;9.392;2023-08-21T00:50:31;12.87;;;9.97;;
813;SDS011;389;48.710;9.392;2023-08-21T00:52:57;12.80;;;10.67;;
813;SDS011;389;48.710;9.392;2023-08-21T00:55:23;14.63;;;10.90;;
813;SDS011;389;48.710;9.392;2023-08-21T00:57:49;11.63;;;10.43;;
813;SDS011;389;48.710;9.392;2023-08-21T01:00:14;12.70;;;10.90;;
813;SDS011;389;48.710;9.392;2023-08-21T01:02:40;14.40;;;10.70;;
813;SDS011;389;48.710;9.392;2023-08-21T01:05:07;14.07;;;11.70;;
813;SDS011;389;48.710;9.392;2023-08-21T01:07:35;13.10;;;10.73;;
813;SDS011;389;48.710;9.392;2023-08-21T01:10:11;13.50;;;11.30;;
813;SDS011;389;48.710;9.392;2023-08-21T01:13:14;14.50;;;10.93;;
813;SDS011;389;48.710;9.392;2023-08-21T01:15:43;13.63;;;11.30;;
813;SDS011;389;48.710;9.392;2023-08-21T01:18:10;12.53;;;10.93;;
813;SDS011;389;48.710;9.392;2023-08-21T01:20:36;16.00;;;11.87;;
813;SDS011;389;48.710;9.392;2023-08-21T01:23:03;13.93;;;11.90;;
813;SDS011;389;48.710;9.392;2023-08-21T01:25:32;18.17;;;11.53;;
813;SDS011;389;48.710;9.392;2023-08-21T01:27:58;14.50;;;12.00;;
813;SDS011;389;48.710;9.392;2023-08-21T01:30:23;15.10;;;10.83;;
813;SDS011;389;48.710;9.392;2023-08-21T01:32:58;12.73;;;11.30;;
813;SDS011;389;48.710;9.392;2023-08-21T01:35:27;14.30;;;12.17;;
813;SDS011;389;48.710;9.392;2023-08-21T01:37:54;12.03;;;10.83;;
813;SDS011;389;48.710;9.392;2023-08-21T01:40:24;15.67;;;11.00;;
813;SDS011;389;48.710;9.392;2023-08-21T01:42:50;12.80;;;11.30;;
813;SDS011;389;48.710;9.392;2023-08-21T01:45:18;13.20;;;10.90;;
813;SDS011;389;48.710;9.392;2023-08-21T01:47:44;13.53;;;11.57;;
813;SDS011;389;48.710;9.392;2023-08-21T01:50:10;15.03;;;11.80;;
813;SDS011;389;48.710;9.392;2023-08-21T01:52:35;14.90;;;11.33;;
813;SDS011;389;48.710;9.392;2023-08-21T01:55:01;14.03;;;11.33;;
813;SDS011;389;48.710;9.392;2023-08-21T01:57:26;12.97;;;11.57;;
813;SDS011;389;48.710;9.392;2023-08-21T01:59:52;13.83;;;11.43;;
813;SDS011;389;48.710;9.392;2023-08-21T02:02:18;13.07;;;11.20;;
813;SDS011;389;48.710;9.392;2023-08-21T02:04:43;13.43;;;11.40;;
813;SDS011;389;48.710;9.392;2023-08-21T02:07:09;13.10;;;11.67;;
813;SDS011;389;48.710;9.392;2023-08-21T02:09:34;14.33;;;11.80;;
813;SDS011;389;48.710;9.392;2023-08-21T02:12:00;12.93;;;11.50;;
813;SDS011;389;48.710;9.392;2023-08-21T02:14:25;12.47;;;11.17;;
813;SDS011;389;48.710;9.392;2023-08-21T02:16:51;15.10;;;12.87;;
813;SDS011;389;48.710;9.392;2023-08-21T02:19:17;14.30;;;11.40;;
813;SDS011;389;48.710;9.392;2023-08-21T02:21:42;14.43;;;11.90;;
813;SDS011;389;48.710;9.392;2023-08-21T02:24:08;14.57;;;12.00;;
813;SDS011;389;48.710;9.392;2023-08-21T02:26:33;13.13;;;11.23;;
813;SDS011;389;48.710;9.392;2023-08-21T02:28:59;13.43;;;11.50;;
813;SDS011;389;48.710;9.392;2023-08-21T02:31:25;13.47;;;11.10;;
813;SDS011;389;48.710;9.392;2023-08-21T02:33:50;13.23;;;11.03;;
813;SDS011;389;48.710;9.392;2023-08-21T02:36:16;13.90;;;11.50;;
813;SDS011;389;48.710;9.392;2023-08-21T02:38:42;15.53;;;11.70;;
813;SDS011;389;48.710;9.392;2023-08-21T02:41:07;16.70;;;11.80;;
813;SDS011;389;48.710;9.392;2023-08-21T02:43:33;13.47;;;11.87;;
813;SDS011;389;48.710;9.392;2023-08-21T02:45:59;13.60;;;12.20;;
813;SDS011;389;48.710;9.392;2023-08-21T02:48:25;15.70;;;11.63;;
813;SDS011;389;48.710;9.392;2023-08-21T02:50:50;12.93;;;11.20;;
813;SDS011;389;48.710;9.392;2023-08-21T02:53:16;14.23;;;12.70;;
813;SDS011;389;48.710;9.392;2023-08-21T02:55:42;14.60;;;12.57;;
813;SDS011;389;48.710;9.392;2023-08-21T02:58:08;12.97;;;11.57;;
813;SDS011;389;48.710;9.392;2023-08-21T03:00:34;16.37;;;12.30;;
813;SDS011;389;48.710;9.392;2023-08-21T03:02:59;14.03;;;11.93;;
813;SDS011;389;48.710;9.392;2023-08-21T03:05:25;13.57;;;11.80;;
813;SDS011;389;48.710;9.392;2023-08-21T03:07:51;15.17;;;12.67;;
813;SDS011;389;48.710;9.392;2023-08-21T03:10:17;14.93;;;12.37;;
813;SDS011;389;48.710;9.392;2023-08-21T03:12:43;16.70;;;13.53;;
813;SDS011;389;48.710;9.392;2023-08-21T03:15:08;14.03;;;11.77;;
813;SDS011;389;48.710;9.392;2023-08-21T03:17:34;13.20;;;11.77;;
813;SDS011;389;48.710;9.392;2023-08-21T03:20:00;14.47;;;11.93;;
813;SDS011;389;48.710;9.392;2023-08-21T03:22:26;14.27;;;12.77;;
813;SDS011;389;48.710;9.392;2023-08-21T03:24:52;16.00;;;13.40;;
813;SDS011;389;48.710;9.392;2023-08-21T03:27:18;14.00;;;12.50;;
813;SDS011;389;48.710;9.392;2023-08-21T03:29:43;13.93;;;12.37;;
813;SDS011;389;48.710;9.392;2023-08-21T03:32:13;13.10;;;11.47;;
813;SDS011;389;48.710;9.392;2023-08-21T03:34:40;12.63;;;11.33;;
813;SDS011;389;48.710;9.392;2023-08-21T03:37:06;14.57;;;11.70;;
813;SDS011;389;48.710;9.392;2023-08-21T03:39:32;13.90;;;10.70;;
813;SDS011;389;48.710;9.392;2023-08-21T03:41:58;13.80;;;11.70;;
813;SDS011;389;48.710;9.392;2023-08-21T03:44:23;12.30;;;11.00;;
813;SDS011;389;48.710;9.392;2023-08-21T03:46:49;14.37;;;12.20;;
813;SDS011;389;48.710;9.392;2023-08-21T03:49:14;12.43;;;11.13;;
813;SDS011;389;48.710;9.392;2023-08-21T03:51:40;13.80;;;11.43;;
813;SDS011;389;48.710;9.392;2023-08-21T03:54:05;16.10;;;14.40;;
813;SDS011;389;48.710;9.392;2023-08-21T03:56:31;18.33;;;15.27;;
813;SDS011;389;48.710;9.392;2023-08-21T03:58:57;15.03;;;13.40;;
813;SDS011;389;48.710;9.392;2023-08-21T04:01:22;14.50;;;11.20;;
813;SDS011;389;48.710;9.392;2023-08-21T04:03:48;12.50;;;11.20;;
813;SDS011;389;48.710;9.392;2023-08-21T04:06:14;12.63;;;11.40;;
813;SDS011;389;48.710;9.392;2023-08-21T04:08:39;16.37;;;11.80;;
813;SDS011;389;48.710;9.392;2023-08-21T04:11:06;12.00;;;10.80;;
813;SDS011;389;48.710;9.392;2023-08-21T04:13:32;13.20;;;11.70;;
813;SDS011;389;48.710;9.392;2023-08-21T04:15:57;12.97;;;11.67;;
813;SDS011;389;48.710;9.392;2023-08-21T04:18:23;14.30;;;11.33;;
813;SDS011;389;48.710;9.392;2023-08-21T04:20:49;13.80;;;11.57;;
813;SDS011;389;48.710;9.392;2023-08-21T04:23:14;16.00;;;12.47;;
813;SDS011;389;48.710;9.392;2023-08-21T04:25:40;14.03;;;12.40;;
813;SDS011;389;48.710;9.392;2023-08-21T04:28:06;15.57;;;12.37;;
813;SDS011;389;48.710;9.392;2023-08-21T04:30:32;14.17;;;12.37;;
813;SDS011;389;48.710;9.392;2023-08-21T04:32:59;15.10;;;12.07;;
813;SDS011;389;48.710;9.392;2023-08-21T04:35:25;18.00;;;11.60;;
813;SDS011;389;48.710;9.392;2023-08-21T04:37:50;13.63;;;12.23;;
813;SDS011;389;48.710;9.392;2023-08-21T04:40:16;14.93;;;13.43;;
813;SDS011;389;48.710;9.392;2023-08-21T04:42:45;14.17;;;12.67;;
813;SDS011;389;48.710;9.392;2023-08-21T04:45:10;14.33;;;12.10;;
813;SDS011;389;48.710;9.392;2023-08-21T04:47:36;14.77;;;12.13;;
813;SDS011;389;48.710;9.392;2023-08-21T04:50:01;16.60;;;13.00;;
813;SDS011;389;48.710;9.392;2023-08-21T04:52:27;14.50;;;12.10;;
813;SDS011;389;48.710;9.392;2023-08-21T04:54:53;14.17;;;11.50;;
813;SDS011;389;48.710;9.392;2023-08-21T04:57:19;13.07;;;11.50;;
813;SDS011;389;48.710;9.392;2023-08-21T04:59:46;13.23;;;11.60;;
813;SDS011;389;48.710;9.392;2023-08-21T05:02:12;14.47;;;11.90;;
813;SDS011;389;48.710;9.392;2023-08-21T05:04:38;13.60;;;10.87;;
813;SDS011;389;48.710;9.392;2023-08-21T05:07:04;14.27;;;11.40;;
813;SDS011;389;48.710;9.392;2023-08-21T05:09:30;13.93;;;12.37;;
813;SDS011;389;48.710;9.392;2023-08-21T05:11:56;15.27;;;12.40;;
813;SDS011;389;48.710;9.392;2023-08-21T05:14:22;15.53;;;12.77;;
813;SDS011;389;48.710;9.392;2023-08-21T05:16:48;13.40;;;11.40;;
813;SDS011;389;48.710;9.392;2023-08-21T05:19:14;13.60;;;12.20;;
813;SDS011;389;48.710;9.392;2023-08-21T05:21:40;14.93;;;12.00;;
813;SDS011;389;48.710;9.392;2023-08-21T05:24:06;13.23;;;11.80;;
813;SDS011;389;48.710;9.392;2023-08-21T05:26:34;15.17;;;12.63;;
813;SDS011;389;48.710;9.392;2023-08-21T05:29:01;15.10;;;12.80;;
813;SDS011;389;48.710;9.392;2023-08-21T05:31:26;18.23;;;13.47;;
813;SDS011;389;48.710;9.392;2023-08-21T05:33:52;16.43;;;12.90;;
813;SDS011;389;48.710;9.392;2023-08-21T05:36:18;14.27;;;12.77;;
813;SDS011;389;48.710;9.392;2023-08-21T05:38:44;17.47;;;15.77;;
813;SDS011;389;48.710;9.392;2023-08-21T05:41:09;13.77;;;12.37;;
813;SDS011;389;48.710;9.392;2023-08-21T05:43:35;13.03;;;11.67;;
813;SDS011;389;48.710;9.392;2023-08-21T05:46:01;15.57;;;12.50;;
813;SDS011;389;48.710;9.392;2023-08-21T05:48:26;11.63;;;10.43;;
813;SDS011;389;48.710;9.392;2023-08-21T05:50:52;12.30;;;10.77;;
813;SDS011;389;48.710;9.392;2023-08-21T05:53:18;13.00;;;11.60;;
813;SDS011;389;48.710;9.392;2023-08-21T05:55:44;12.23;;;10.93;;
813;SDS011;389;48.710;9.392;2023-08-21T05:58:10;12.77;;;11.20;;
813;SDS011;389;48.710;9.392;2023-08-21T06:00:37;13.03;;;11.73;;
813;SDS011;389;48.710;9.392;2023-08-21T06:03:04;10.93;;;9.80;;
813;SDS011;389;48.710;9.392;2023-08-21T06:05:29;11.27;;;10.17;;
813;SDS011;389;48.710;9.392;2023-08-21T06:07:55;11.10;;;9.87;;
813;SDS011;389;48.710;9.392;2023-08-21T06:10:21;12.33;;;10.00;;
813;SDS011;389;48.710;9.392;2023-08-21T06:12:46;14.87;;;11.27;;
813;SDS011;389;48.710;9.392;2023-08-21T06:15:13;10.90;;;9.80;;
813;SDS011;389;48.710;9.392;2023-08-21T06:17:38;14.70;;;10.80;;
813;SDS011;389;48.710;9.392;2023-08-21T06:20:05;11.97;;;10.70;;
813;SDS011;389;48.710;9.392;2023-08-21T06:22:33;12.17;;;10.90;;
813;SDS011;389;48.710;9.392;2023-08-21T06:24:59;11.43;;;10.20;;
813;SDS011;389;48.710;9.392;2023-08-21T06:27:25;15.50;;;10.17;;
813;SDS011;389;48.710;9.392;2023-08-21T06:29:51;9.83;;;8.93;;
813;SDS011;389;48.710;9.392;2023-08-21T06:32:16;11.73;;;10.57;;
813;SDS011;389;48.710;9.392;2023-08-21T06:34:42;12.00;;;10.77;;
813;SDS011;389;48.710;9.392;2023-08-21T06:37:07;11.43;;;10.23;;
813;SDS011;389;48.710;9.392;2023-08-21T06:39:34;11.83;;;10.63;;
813;SDS011;389;48.710;9.392;2023-08-21T06:41:59;12.77;;;10.83;;
813;SDS011;389;48.710;9.392;2023-08-21T06:44:25;11.80;;;10.60;;
813;SDS011;389;48.710;9.392;2023-08-21T06:46:51;12.73;;;11.43;;
813;SDS011;389;48.710;9.392;2023-08-21T06:49:17;12.33;;;11.03;;
813;SDS011;389;48.710;9.392;2023-08-21T06:51:43;11.83;;;10.63;;
813;SDS011;389;48.710;9.392;2023-08-21T06:54:09;13.53;;;11.30;;
813;SDS011;389;48.710;9.392;2023-08-21T06:56:34;13.67;;;11.13;;
813;SDS011;389;48.710;9.392;2023-08-21T06:59:00;12.57;;;10.57;;
813;SDS011;389;48.710;9.392;2023-08-21T07:01:27;12.80;;;11.50;;
813;SDS011;389;48.710;9.392;2023-08-21T07:03:53;12.13;;;10.93;;
813;SDS011;389;48.710;9.392;2023-08-21T07:06:18;13.70;;;12.00;;
813;SDS011;389;48.710;9.392;2023-08-21T07:08:44;11.87;;;10.77;;
813;SDS011;389;48.710;9.392;2023-08-21T07:11:10;12.73;;;11.47;;
813;SDS011;389;48.710;9.392;2023-08-21T07:13:37;11.83;;;10.70;;
813;SDS011;389;48.710;9.392;2023-08-21T07:16:03;12.63;;;11.30;;
813;SDS011;389;48.710;9.392;2023-08-21T07:18:33;13.07;;;11.67;;
813;SDS011;389;48.710;9.392;2023-08-21T07:21:00;13.27;;;11.97;;
813;SDS011;389;48.710;9.392;2023-08-21T07:23:26;12.60;;;11.33;;
813;SDS011;389;48.710;9.392;2023-08-21T07:25:51;13.77;;;11.27;;
813;SDS011;389;48.710;9.392;2023-08-21T07:28:17;13.00;;;11.70;;
813;SDS011;389;48.710;9.392;2023-08-21T07:30:43;14.97;;;11.80;;
813;SDS011;389;48.710;9.392;2023-08-21T07:33:08;12.47;;;10.93;;
813;SDS011;389;48.710;9.392;2023-08-21T07:35:34;15.07;;;11.97;;
813;SDS011;389;48.710;9.392;2023-08-21T07:38:00;11.50;;;10.30;;
813;SDS011;389;48.710;9.392;2023-08-21T07:40:26;13.70;;;12.30;;
813;SDS011;389;48.710;9.392;2023-08-21T07:42:52;12.50;;;11.23;;
813;SDS011;389;48.710;9.392;2023-08-21T07:45:17;12.57;;;11.37;;
813;SDS011;389;48.710;9.392;2023-08-21T07:47:43;11.27;;;10.27;;
813;SDS011;389;48.710;9.392;2023-08-21T07:50:09;12.50;;;11.20;;
813;SDS011;389;48.710;9.392;2023-08-21T07:52:34;11.93;;;10.83;;
813;SDS011;389;48.710;9.392;2023-08-21T07:55:00;15.30;;;10.97;;
813;SDS011;389;48.710;9.392;2023-08-21T07:57:27;12.17;;;10.90;;
813;SDS011;389;48.710;9.392;2023-08-21T07:59:55;12.03;;;10.93;;
813;SDS011;389;48.710;9.392;2023-08-21T08:02:21;12.03;;;10.77;;
813;SDS011;389;48.710;9.392;2023-08-21T08:04:48;13.10;;;11.80;;
813;SDS011;389;48.710;9.392;2023-08-21T08:07:13;13.50;;;12.03;;
813;SDS011;389;48.710;9.392;2023-08-21T08:09:39;12.43;;;11.20;;
813;SDS011;389;48.710;9.392;2023-08-21T08:12:04;12.23;;;10.00;;
813;SDS011;389;48.710;9.392;2023-08-21T08:14:30;11.63;;;10.50;;
813;SDS011;389;48.710;9.392;2023-08-21T08:16:56;12.57;;;11.30;;
813;SDS011;389;48.710;9.392;2023-08-21T08:19:22;12.00;;;9.80;;
813;SDS011;389;48.710;9.392;2023-08-21T08:21:47;12.67;;;11.37;;
813;SDS011;389;48.710;9.392;2023-08-21T08:24:13;11.97;;;10.73;;
813;SDS011;389;48.710;9.392;2023-08-21T08:26:39;11.30;;;10.30;;
813;SDS011;389;48.710;9.392;2023-08-21T08:29:05;12.03;;;10.57;;
813;SDS011;389;48.710;9.392;2023-08-21T08:31:31;12.83;;;10.60;;
813;SDS011;389;48.710;9.392;2023-08-21T08:33:56;12.27;;;10.97;;
813;SDS011;389;48.710;9.392;2023-08-21T08:36:22;11.97;;;10.70;;
813;SDS011;389;48.710;9.392;2023-08-21T08:38:48;11.20;;;10.00;;
813;SDS011;389;48.710;9.392;2023-08-21T08:41:17;11.53;;;10.43;;
813;SDS011;389;48.710;9.392;2023-08-21T08:43:49;11.80;;;10.70;;
813;SDS011;389;48.710;9.392;2023-08-21T08:46:15;12.03;;;10.90;;
813;SDS011;389;48.710;9.392;2023-08-21T08:48:41;13.10;;;10.87;;
813;SDS011;389;48.710;9.392;2023-08-21T08:51:07;11.53;;;10.33;;
813;SDS011;389;48.710;9.392;2023-08-21T08:53:33;12.10;;;10.90;;
813;SDS011;389;48.710;9.392;2023-08-21T08:55:59;12.30;;;11.03;;
813;SDS011;389;48.710;9.392;2023-08-21T08:58:25;10.53;;;9.53;;
813;SDS011;389;48.710;9.392;2023-08-21T09:00:51;11.80;;;10.60;;
813;SDS011;389;48.710;9.392;2023-08-21T09:03:17;11.60;;;10.40;;
813;SDS011;389;48.710;9.392;2023-08-21T09:05:42;11.73;;;10.60;;
813;SDS011;389;48.710;9.392;2023-08-21T09:10:35;11.33;;;10.03;;
813;SDS011;389;48.710;9.392;2023-08-21T09:13:01;13.90;;;10.13;;
813;SDS011;389;48.710;9.392;2023-08-21T09:15:35;12.73;;;11.17;;
813;SDS011;389;48.710;9.392;2023-08-21T09:18:01;12.07;;;10.97;;
813;SDS011;389;48.710;9.392;2023-08-21T09:20:27;11.57;;;10.47;;
813;SDS011;389;48.710;9.392;2023-08-21T09:22:59;13.10;;;10.33;;
813;SDS011;389;48.710;9.392;2023-08-21T09:25:25;10.87;;;9.73;;
813;SDS011;389;48.710;9.392;2023-08-21T09:27:51;12.80;;;11.50;;
813;SDS011;389;48.710;9.392;2023-08-21T09:30:18;11.43;;;10.33;;
813;SDS011;389;48.710;9.392;2023-08-21T09:32:54;11.33;;;10.27;;
813;SDS011;389;48.710;9.392;2023-08-21T09:35:21;12.63;;;11.13;;
813;SDS011;389;48.710;9.392;2023-08-21T09:37:48;11.23;;;10.10;;
813;SDS011;389;48.710;9.392;2023-08-21T09:40:14;11.57;;;10.20;;
813;SDS011;389;48.710;9.392;2023-08-21T09:42:42;11.13;;;10.03;;
813;SDS011;389;48.710;9.392;2023-08-21T09:45:08;11.03;;;9.93;;
813;SDS011;389;48.710;9.392;2023-08-21T09:47:34;13.30;;;10.87;;
813;SDS011;389;48.710;9.392;2023-08-21T09:50:01;11.37;;;10.10;;
813;SDS011;389;48.710;9.392;2023-08-21T09:52:27;11.87;;;10.20;;
813;SDS011;389;48.710;9.392;2023-08-21T09:54:53;11.67;;;10.57;;
813;SDS011;389;48.710;9.392;2023-08-21T09:57:21;11.10;;;10.10;;
813;SDS011;389;48.710;9.392;2023-08-21T09:59:48;13.23;;;9.97;;
813;SDS011;389;48.710;9.392;2023-08-21T10:02:17;10.30;;;9.30;;
813;SDS011;389;48.710;9.392;2023-08-21T10:04:43;10.27;;;9.27;;
813;SDS011;389;48.710;9.392;2023-08-21T10:07:10;10.47;;;9.47;;
813;SDS011;389;48.710;9.392;2023-08-21T10:09:39;11.40;;;10.20;;
813;SDS011;389;48.710;9.392;2023-08-21T10:12:08;11.03;;;9.80;;
813;SDS011;389;48.710;9.392;2023-08-21T10:14:34;10.30;;;9.20;;
813;SDS011;389;48.710;9.392;2023-08-21T10:17:01;10.20;;;9.20;;
813;SDS011;389;48.710;9.392;2023-08-21T10:19:31;10.20;;;9.30;;
813;SDS011;389;48.710;9.392;2023-08-21T10:21:57;10.63;;;9.63;;
813;SDS011;389;48.710;9.392;2023-08-21T10:24:27;9.80;;;8.90;;
813;SDS011;389;48.710;9.392;2023-08-21T10:26:58;10.40;;;9.37;;
813;SDS011;389;48.710;9.392;2023-08-21T10:29:24;10.40;;;8.80;;
813;SDS011;389;48.710;9.392;2023-08-21T10:32:04;10.70;;;9.70;;
813;SDS011;389;48.710;9.392;2023-08-21T10:34:30;10.70;;;9.60;;
813;SDS011;389;48.710;9.392;2023-08-21T10:37:04;9.45;;;8.60;;
813;SDS011;389;48.710;9.392;2023-08-21T10:39:34;9.23;;;8.43;;
813;SDS011;389;48.710;9.392;2023-08-21T10:42:11;10.20;;;9.20;;
813;SDS011;389;48.710;9.392;2023-08-21T10:47:17;10.25;;;9.25;;
813;SDS011;389;48.710;9.392;2023-08-21T10:49:49;10.75;;;8.82;;
813;SDS011;389;48.710;9.392;2023-08-21T10:52:23;9.48;;;8.68;;
813;SDS011;389;48.710;9.392;2023-08-21T10:54:54;10.55;;;9.38;;
813;SDS011;389;48.710;9.392;2023-08-21T10:57:22;10.55;;;9.50;;
813;SDS011;389;48.710;9.392;2023-08-21T10:59:55;9.98;;;8.98;;
813;SDS011;389;48.710;9.392;2023-08-21T11:02:28;10.68;;;9.60;;
813;SDS011;389;48.710;9.392;2023-08-21T11:04:55;11.60;;;9.38;;
813;SDS011;389;48.710;9.392;2023-08-21T11:07:21;10.55;;;9.55;;
813;SDS011;389;48.710;9.392;2023-08-21T11:09:48;10.68;;;9.68;;
813;SDS011;389;48.710;9.392;2023-08-21T11:12:20;9.82;;;8.88;;
813;SDS011;389;48.710;9.392;2023-08-21T11:14:48;9.73;;;8.60;;
813;SDS011;389;48.710;9.392;2023-08-21T11:17:15;8.70;;;7.90;;
813;SDS011;389;48.710;9.392;2023-08-21T11:19:41;9.85;;;8.88;;
813;SDS011;389;48.710;9.392;2023-08-21T11:22:07;9.80;;;8.80;;
813;SDS011;389;48.710;9.392;2023-08-21T11:27:02;9.43;;;8.55;;
813;SDS011;389;48.710;9.392;2023-08-21T11:29:42;10.55;;;9.45;;
813;SDS011;389;48.710;9.392;2023-08-21T11:32:27;10.40;;;9.38;;
813;SDS011;389;48.710;9.392;2023-08-21T11:34:56;11.57;;;9.98;;
813;SDS011;389;48.710;9.392;2023-08-21T11:37:23;10.18;;;9.23;;
813;SDS011;389;48.710;9.392;2023-08-21T11:39:51;10.18;;;9.00;;
813;SDS011;389;48.710;9.392;2023-08-21T11:42:17;10.48;;;9.40;;
813;SDS011;389;48.710;9.392;2023-08-21T11:44:45;9.68;;;8.98;;
813;SDS011;389;48.710;9.392;2023-08-21T11:47:21;10.52;;;9.50;;
813;SDS011;389;48.710;9.392;2023-08-21T11:49:48;11.15;;;9.30;;
813;SDS011;389;48.710;9.392;2023-08-21T11:52:17;10.18;;;9.13;;
813;SDS011;389;48.710;9.392;2023-08-21T11:54:46;10.50;;;9.60;;
813;SDS011;389;48.710;9.392;2023-08-21T11:57:16;11.00;;;9.98;;
813;SDS011;389;48.710;9.392;2023-08-21T11:59:42;10.32;;;9.43;;
813;SDS011;389;48.710;9.392;2023-08-21T12:02:09;11.00;;;9.30;;
813;SDS011;389;48.710;9.392;2023-08-21T12:04:38;9.70;;;8.88;;
813;SDS011;389;48.710;9.392;2023-08-21T12:07:04;10.20;;;9.30;;
813;SDS011;389;48.710;9.392;2023-08-21T12:09:29;10.00;;;9.05;;
813;SDS011;389;48.710;9.392;2023-08-21T12:11:55;11.00;;;9.10;;
813;SDS011;389;48.710;9.392;2023-08-21T12:14:22;9.50;;;8.50;;
813;SDS011;389;48.710;9.392;2023-08-21T12:16:48;9.73;;;8.88;;
813;SDS011;389;48.710;9.392;2023-08-21T12:19:13;9.20;;;8.40;;
813;SDS011;389;48.710;9.392;2023-08-21T12:21:39;10.23;;;9.25;;
813;SDS011;389;48.710;9.392;2023-08-21T12:24:05;10.00;;;9.10;;
813;SDS011;389;48.710;9.392;2023-08-21T12:26:31;12.32;;;9.20;;
813;SDS011;389;48.710;9.392;2023-08-21T12:29:00;11.23;;;9.88;;
813;SDS011;389;48.710;9.392;2023-08-21T12:31:26;10.27;;;9.27;;
813;SDS011;389;48.710;9.392;2023-08-21T12:33:51;9.80;;;9.00;;
813;SDS011;389;48.710;9.392;2023-08-21T12:36:17;11.27;;;9.43;;
813;SDS011;389;48.710;9.392;2023-08-21T12:38:42;10.50;;;9.45;;
813;SDS011;389;48.710;9.392;2023-08-21T12:41:08;9.70;;;8.70;;
813;SDS011;389;48.710;9.392;2023-08-21T12:43:34;10.02;;;9.13;;
813;SDS011;389;48.710;9.392;2023-08-21T12:46:02;10.30;;;9.25;;
813;SDS011;389;48.710;9.392;2023-08-21T12:48:28;11.32;;;10.13;;
813;SDS011;389;48.710;9.392;2023-08-21T12:50:53;10.35;;;8.95;;
813;SDS011;389;48.710;9.392;2023-08-21T12:53:19;10.38;;;9.38;;
813;SDS011;389;48.710;9.392;2023-08-21T12:55:45;9.45;;;8.48;;
813;SDS011;389;48.710;9.392;2023-08-21T12:58:10;9.82;;;8.88;;
813;SDS011;389;48.710;9.392;2023-08-21T13:00:38;10.88;;;8.95;;
813;SDS011;389;48.710;9.392;2023-08-21T13:03:04;9.55;;;8.55;;
813;SDS011;389;48.710;9.392;2023-08-21T13:05:29;9.40;;;8.48;;
813;SDS011;389;48.710;9.392;2023-08-21T13:07:55;9.18;;;8.38;;
813;SDS011;389;48.710;9.392;2023-08-21T13:10:20;9.70;;;8.60;;
813;SDS011;389;48.710;9.392;2023-08-21T13:12:46;9.20;;;8.43;;
813;SDS011;389;48.710;9.392;2023-08-21T13:15:12;9.80;;;8.80;;
813;SDS011;389;48.710;9.392;2023-08-21T13:17:37;9.63;;;8.70;;
813;SDS011;389;48.710;9.392;2023-08-21T13:20:03;8.75;;;7.90;;
813;SDS011;389;48.710;9.392;2023-08-21T13:22:43;9.13;;;8.23;;
813;SDS011;389;48.710;9.392;2023-08-21T13:25:12;9.23;;;8.32;;
813;SDS011;389;48.710;9.392;2023-08-21T13:27:38;9.10;;;8.30;;
813;SDS011;389;48.710;9.392;2023-08-21T13:30:03;8.38;;;7.68;;
813;SDS011;389;48.710;9.392;2023-08-21T13:32:30;8.15;;;7.53;;
813;SDS011;389;48.710;9.392;2023-08-21T13:34:56;11.65;;;8.38;;
813;SDS011;389;48.710;9.392;2023-08-21T13:37:21;9.63;;;8.82;;
813;SDS011;389;48.710;9.392;2023-08-21T13:39:47;10.27;;;9.25;;
813;SDS011;389;48.710;9.392;2023-08-21T13:42:13;8.45;;;7.65;;
813;SDS011;389;48.710;9.392;2023-08-21T13:44:38;9.15;;;8.35;;
813;SDS011;389;48.710;9.392;2023-08-21T13:47:04;9.50;;;8.18;;
813;SDS011;389;48.710;9.392;2023-08-21T13:49:30;9.00;;;8.10;;
813;SDS011;389;48.710;9.392;2023-08-21T13:51:55;8.68;;;7.95;;
813;SDS011;389;48.710;9.392;2023-08-21T13:54:21;8.52;;;7.78;;
813;SDS011;389;48.710;9.392;2023-08-21T13:56:46;8.88;;;7.88;;
813;SDS011;389;48.710;9.392;2023-08-21T13:59:12;8.82;;;7.93;;
813;SDS011;389;48.710;9.392;2023-08-21T14:01:38;8.45;;;7.65;;
813;SDS011;389;48.710;9.392;2023-08-21T14:04:04;8.48;;;7.88;;
813;SDS011;389;48.710;9.392;2023-08-21T14:06:31;8.75;;;7.85;;
813;SDS011;389;48.710;9.392;2023-08-21T14:08:56;9.15;;;8.35;;
813;SDS011;389;48.710;9.392;2023-08-21T14:11:22;12.32;;;8.35;;
813;SDS011;389;48.710;9.392;2023-08-21T14:13:47;10.13;;;7.82;;
813;SDS011;389;48.710;9.392;2023-08-21T14:16:13;10.30;;;7.65;;
813;SDS011;389;48.710;9.392;2023-08-21T14:18:38;8.48;;;7.65;;
813;SDS011;389;48.710;9.392;2023-08-21T14:21:04;9.60;;;7.88;;
813;SDS011;389;48.710;9.392;2023-08-21T14:23:32;7.82;;;7.07;;
813;SDS011;389;48.710;9.392;2023-08-21T14:25:57;8.80;;;8.00;;
813;SDS011;389;48.710;9.392;2023-08-21T14:28:23;8.63;;;7.93;;
813;SDS011;389;48.710;9.392;2023-08-21T14:30:48;8.50;;;7.57;;
813;SDS011;389;48.710;9.392;2023-08-21T14:33:16;7.35;;;6.55;;
813;SDS011;389;48.710;9.392;2023-08-21T14:35:42;8.60;;;7.75;;
813;SDS011;389;48.710;9.392;2023-08-21T14:38:07;8.88;;;8.18;;
813;SDS011;389;48.710;9.392;2023-08-21T14:40:33;8.60;;;7.90;;
813;SDS011;389;48.710;9.392;2023-08-21T14:42:58;8.50;;;7.57;;
813;SDS011;389;48.710;9.392;2023-08-21T14:45:24;8.25;;;7.47;;
813;SDS011;389;48.710;9.392;2023-08-21T14:47:49;9.30;;;8.00;;
813;SDS011;389;48.710;9.392;2023-08-21T14:50:15;9.68;;;8.20;;
813;SDS011;389;48.710;9.392;2023-08-21T14:52:40;10.65;;;7.50;;
813;SDS011;389;48.710;9.392;2023-08-21T14:55:06;7.78;;;7.15;;
813;SDS011;389;48.710;9.392;2023-08-21T14:57:32;8.55;;;7.82;;
813;SDS011;389;48.710;9.392;2023-08-21T14:59:57;8.25;;;7.32;;
813;SDS011;389;48.710;9.392;2023-08-21T15:02:26;11.05;;;7.50;;
813;SDS011;389;48.710;9.392;2023-08-21T15:04:51;10.40;;;7.53;;
813;SDS011;389;48.710;9.392;2023-08-21T15:07:20;8.30;;;7.50;;
813;SDS011;389;48.710;9.392;2023-08-21T15:09:45;8.10;;;7.30;;
813;SDS011;389;48.710;9.392;2023-08-21T15:12:11;7.85;;;7.15;;
813;SDS011;389;48.710;9.392;2023-08-21T15:14:36;7.40;;;6.80;;
813;SDS011;389;48.710;9.392;2023-08-21T15:17:02;8.25;;;7.55;;
813;SDS011;389;48.710;9.392;2023-08-21T15:19:27;8.43;;;7.72;;
813;SDS011;389;48.710;9.392;2023-08-21T15:21:53;7.82;;;7.13;;
813;SDS011;389;48.710;9.392;2023-08-21T15:24:18;8.68;;;7.88;;
813;SDS011;389;48.710;9.392;2023-08-21T15:26:44;8.88;;;6.32;;
813;SDS011;389;48.710;9.392;2023-08-21T15:29:10;7.55;;;6.95;;